createdAt,value
2023-01-15T00:02:09.924Z,85.85
2023-01-15T00:07:04.704Z,85.86
2023-01-15T00:11:57.619Z,85.56
2023-01-15T00:16:54.457Z,85.48
2023-01-15T00:21:47.385Z,85.26
2023-01-15T00:26:59.386Z,85.27
2023-01-15T00:31:58.797Z,84.95
2023-01-15T00:36:51.857Z,84.85
2023-01-15T00:41:44.749Z,84.70
2023-01-15T00:46:37.966Z,84.47
2023-01-15T00:51:31.252Z,84.27
2023-01-15T00:56:24.295Z,84.36
2023-01-15T01:01:17.717Z,84.08
2023-01-15T01:06:10.816Z,84.36
2023-01-15T01:11:12.551Z,84.27
2023-01-15T01:16:06.788Z,84.22
2023-01-15T01:21:02.104Z,83.99
2023-01-15T01:25:55.088Z,84.09
2023-01-15T01:30:48.340Z,83.74
2023-01-15T01:35:48.796Z,83.70
2023-01-15T01:40:42.438Z,83.51
2023-01-15T01:45:35.382Z,83.57
2023-01-15T01:50:31.125Z,83.55
2023-01-15T01:55:27.840Z,83.68
2023-01-15T02:00:22.135Z,83.32
2023-01-15T02:05:20.684Z,83.55
2023-01-15T02:10:18.500Z,83.27
2023-01-15T02:15:18.491Z,83.52
2023-01-15T02:20:31.097Z,83.34
2023-01-15T02:25:56.398Z,83.56
2023-01-15T02:30:56.234Z,83.32
2023-01-15T02:35:53.916Z,82.92
2023-01-15T02:40:53.811Z,82.99
2023-01-15T02:45:50.665Z,83.16
2023-01-15T02:50:47.254Z,83.43
2023-01-15T02:55:45.552Z,83.28
2023-01-15T03:00:45.082Z,83.02
2023-01-15T03:05:45.322Z,82.88
2023-01-15T03:11:08.615Z,83.07
2023-01-15T03:16:28.877Z,82.98
2023-01-15T03:21:32.541Z,82.68
2023-01-15T03:26:25.420Z,82.50
2023-01-15T03:31:19.107Z,82.42
2023-01-15T03:36:12.140Z,82.49
2023-01-15T03:41:39.347Z,82.14
2023-01-15T03:47:00.345Z,82.00
2023-01-15T03:52:00.470Z,81.94
2023-01-15T03:57:03.707Z,81.72
2023-01-15T04:01:59.740Z,81.90
2023-01-15T04:06:52.980Z,81.46
2023-01-15T04:11:47.300Z,81.55
2023-01-15T04:16:40.381Z,81.35
2023-01-15T04:21:33.728Z,81.32
2023-01-15T04:26:26.545Z,80.83
2023-01-15T04:31:20.109Z,81.01
2023-01-15T04:36:14.592Z,80.68
2023-01-15T04:41:25.612Z,80.42
2023-01-15T04:46:23.044Z,80.61
2023-01-15T04:51:15.939Z,80.62
2023-01-15T04:56:09.569Z,80.19
2023-01-15T05:01:03.261Z,80.36
2023-01-15T05:05:56.469Z,80.41
2023-01-15T05:10:49.324Z,79.87
2023-01-15T05:15:42.860Z,79.79
2023-01-15T05:20:39.107Z,80.04
2023-01-15T05:25:31.943Z,79.85
2023-01-15T05:30:24.833Z,80.02
2023-01-15T05:35:17.676Z,79.90
2023-01-15T05:40:11.365Z,79.70
2023-01-15T05:45:04.532Z,79.89
2023-01-15T05:49:57.355Z,79.68
2023-01-15T05:54:51.111Z,79.69
2023-01-15T05:59:44.017Z,79.27
2023-01-15T06:04:37.868Z,79.51
2023-01-15T06:09:30.736Z,79.02
2023-01-15T06:14:23.708Z,79.02
2023-01-15T06:19:16.565Z,79.19
2023-01-15T06:24:10.447Z,78.71
2023-01-15T06:29:03.360Z,78.15
2023-01-15T06:33:57.116Z,78.59
2023-01-15T06:38:50.768Z,78.40
2023-01-15T06:44:00.927Z,78.54
2023-01-15T06:48:54.830Z,77.81
2023-01-15T06:53:48.082Z,77.98
2023-01-15T06:58:41.287Z,78.06
2023-01-15T07:03:34.564Z,77.65
2023-01-15T07:08:28.725Z,78.12
2023-01-15T07:13:21.613Z,78.09
2023-01-15T07:18:14.464Z,78.17
2023-01-15T07:23:07.285Z,78.41
2023-01-15T07:28:00.082Z,78.63
2023-01-15T07:32:52.875Z,78.99
2023-01-15T07:37:45.669Z,79.44
2023-01-15T07:42:56.252Z,79.73
2023-01-15T07:48:06.366Z,80.55
2023-01-15T07:52:59.201Z,80.94
2023-01-15T07:57:53.777Z,81.54
2023-01-15T08:02:49.852Z,81.80
2023-01-15T08:07:44.199Z,82.17
2023-01-15T08:12:57.401Z,82.13
2023-01-15T08:17:52.465Z,82.14
2023-01-15T08:22:45.900Z,82.24
2023-01-15T08:27:40.663Z,82.34
2023-01-15T08:32:33.530Z,82.46
2023-01-15T08:37:27.697Z,82.36
2023-01-15T08:42:22.264Z,82.33
2023-01-15T08:47:16.642Z,81.83
2023-01-15T08:52:09.948Z,81.84
2023-01-15T08:57:03.004Z,81.48
2023-01-15T09:01:56.065Z,81.39
2023-01-15T09:06:50.149Z,81.31
2023-01-15T09:11:45.217Z,80.85
2023-01-15T09:16:40.540Z,80.79
2023-01-15T09:21:33.816Z,80.77
2023-01-15T09:26:33.303Z,80.82
2023-01-15T09:31:29.008Z,80.82
2023-01-15T09:36:29.160Z,81.44
2023-01-15T09:41:41.207Z,81.98
2023-01-15T09:46:42.931Z,82.32
2023-01-15T09:51:49.823Z,82.88
2023-01-15T09:56:42.984Z,83.44
2023-01-15T10:01:36.416Z,83.84
2023-01-15T10:06:34.187Z,84.04
2023-01-15T10:12:00.426Z,84.34
2023-01-15T10:16:53.602Z,84.72
2023-01-15T10:22:04.934Z,84.94
2023-01-15T10:27:01.556Z,85.09
2023-01-15T10:32:06.932Z,85.41
2023-01-15T10:36:59.766Z,85.35
2023-01-15T10:41:58.487Z,85.60
2023-01-15T10:46:58.614Z,85.78
2023-01-15T10:51:55.601Z,85.86
2023-01-15T10:56:53.552Z,85.92
2023-01-15T11:01:49.007Z,86.16
2023-01-15T11:06:42.864Z,86.22
2023-01-15T11:12:02.284Z,86.42
2023-01-15T11:17:12.764Z,86.56
2023-01-15T11:22:13.198Z,86.77
2023-01-15T11:27:08.895Z,86.85
2023-01-15T11:32:01.782Z,86.86
2023-01-15T11:37:06.214Z,86.99
2023-01-15T11:42:25.322Z,87.11
2023-01-15T11:47:37.818Z,87.29
2023-01-15T11:52:31.605Z,87.24
2023-01-15T11:57:29.086Z,87.53
2023-01-15T12:02:31.153Z,87.51
2023-01-15T12:07:26.830Z,87.69
2023-01-15T12:12:46.146Z,87.79
2023-01-15T12:18:07.089Z,87.86
2023-01-15T12:23:21.320Z,87.92
2023-01-15T12:28:20.998Z,87.94
2023-01-15T12:34:04.987Z,87.93
2023-01-15T12:39:02.839Z,88.10
2023-01-15T12:44:29.226Z,88.16
2023-01-15T12:49:35.700Z,88.26
2023-01-15T12:54:47.354Z,88.23
2023-01-15T12:59:55.714Z,88.45
2023-01-15T13:05:03.616Z,88.32
2023-01-15T13:10:21.637Z,88.56
2023-01-15T13:15:17.793Z,88.72
2023-01-15T13:20:15.399Z,88.68
2023-01-15T13:25:08.535Z,88.59
2023-01-15T13:30:16.859Z,88.72
2023-01-15T13:35:21.518Z,88.71
2023-01-15T13:40:43.759Z,88.83
2023-01-15T13:45:51.939Z,88.75
2023-01-15T13:51:16.648Z,88.82
2023-01-15T13:56:32.532Z,88.91
2023-01-15T14:01:30.950Z,88.85
2023-01-15T14:06:23.863Z,88.81
2023-01-15T14:11:37.969Z,88.82
2023-01-15T14:16:51.284Z,88.90
2023-01-15T14:21:59.050Z,88.81
2023-01-15T14:27:00.151Z,88.78
2023-01-15T14:32:16.312Z,88.88
2023-01-15T14:37:27.882Z,88.79
2023-01-15T14:42:41.099Z,88.86
2023-01-15T14:47:45.423Z,88.84
2023-01-15T14:52:38.724Z,88.87
2023-01-15T14:57:31.870Z,88.94
2023-01-15T15:02:46.012Z,88.70
2023-01-15T15:07:44.658Z,88.95
2023-01-15T15:12:58.166Z,88.89
2023-01-15T15:18:12.830Z,88.73
2023-01-15T15:23:29.348Z,88.66
2023-01-15T15:28:22.869Z,88.70
2023-01-15T15:33:21.935Z,88.77
2023-01-15T15:38:21.636Z,88.80
2023-01-15T15:43:38.270Z,88.95
2023-01-15T15:48:45.624Z,88.83
2023-01-15T15:53:49.975Z,88.75
2023-01-15T15:58:43.375Z,88.74
2023-01-15T16:03:36.827Z,88.60
2023-01-15T16:08:35.695Z,88.55
2023-01-15T16:13:34.043Z,88.69
2023-01-15T16:18:31.308Z,88.51
2023-01-15T16:23:27.072Z,88.11
2023-01-15T16:28:27.543Z,88.13
2023-01-15T16:33:20.784Z,88.19
2023-01-15T16:38:21.868Z,88.33
2023-01-15T16:43:18.137Z,88.40
2023-01-15T16:48:27.505Z,88.49
2023-01-15T16:53:33.825Z,88.70
2023-01-15T16:58:38.404Z,88.81
2023-01-15T17:03:33.865Z,88.93
2023-01-15T17:08:39.835Z,89.18
2023-01-15T17:13:36.792Z,89.41
2023-01-15T17:18:30.621Z,89.61
2023-01-15T17:23:27.473Z,89.75
2023-01-15T17:28:24.485Z,89.91
2023-01-15T17:33:27.648Z,90.11
2023-01-15T17:38:21.036Z,90.18
2023-01-15T17:43:15.851Z,90.43
2023-01-15T17:48:10.013Z,90.44
2023-01-15T17:53:03.452Z,90.71
2023-01-15T17:58:17.023Z,90.89
2023-01-15T18:03:37.019Z,91.06
2023-01-15T18:08:33.529Z,91.33
2023-01-15T18:13:26.442Z,91.33
2023-01-15T18:18:20.556Z,91.48
2023-01-15T18:23:13.774Z,91.51
2023-01-15T18:28:07.003Z,91.67
2023-01-15T18:33:02.694Z,91.72
2023-01-15T18:37:56.384Z,91.78
2023-01-15T18:43:06.840Z,91.91
2023-01-15T18:48:03.757Z,91.90
2023-01-15T18:52:57.215Z,92.01
2023-01-15T18:57:50.640Z,92.10
2023-01-15T19:02:45.280Z,92.11
2023-01-15T19:07:38.315Z,92.15
2023-01-15T19:12:31.275Z,92.29
2023-01-15T19:17:43.590Z,92.25
2023-01-15T19:22:56.837Z,92.31
2023-01-15T19:27:55.472Z,92.46
2023-01-15T19:32:48.631Z,92.39
2023-01-15T19:37:41.962Z,92.26
2023-01-15T19:42:52.212Z,92.53
2023-01-15T19:48:02.791Z,92.45
2023-01-15T19:52:59.324Z,92.45
2023-01-15T19:58:01.881Z,92.42
2023-01-15T20:02:54.929Z,92.37
2023-01-15T20:07:47.927Z,92.45
2023-01-15T20:12:58.598Z,92.41
2023-01-15T20:17:51.863Z,92.42
2023-01-15T20:22:45.078Z,92.44
2023-01-15T20:27:40.390Z,92.66
2023-01-15T20:32:33.857Z,92.68
2023-01-15T20:37:26.959Z,92.67
2023-01-15T20:42:37.531Z,92.80
2023-01-15T20:47:48.121Z,92.78
2023-01-15T20:52:45.461Z,92.83
2023-01-15T20:57:41.178Z,92.83
2023-01-15T21:02:34.105Z,92.82
2023-01-15T21:07:27.228Z,92.90
2023-01-15T21:12:20.099Z,92.96
2023-01-15T21:17:13.329Z,93.04
2023-01-15T21:22:06.332Z,93.11
2023-01-15T21:26:59.153Z,93.19
2023-01-15T21:31:54.056Z,93.15
2023-01-15T21:36:47.300Z,93.09
2023-01-15T21:41:57.977Z,93.06
2023-01-15T21:46:50.985Z,93.05
2023-01-15T21:51:43.960Z,92.94
2023-01-15T21:56:38.463Z,92.90
2023-01-15T22:01:31.485Z,92.86
2023-01-15T22:06:24.664Z,92.85
2023-01-15T22:11:17.557Z,92.75
2023-01-15T22:16:10.475Z,92.60
2023-01-15T22:21:15.023Z,92.55
2023-01-15T22:26:08.019Z,92.69
2023-01-15T22:31:00.879Z,92.48
2023-01-15T22:35:58.866Z,92.45
2023-01-15T22:40:51.915Z,92.36
2023-01-15T22:45:57.465Z,92.37
2023-01-15T22:50:50.400Z,92.34
2023-01-15T22:55:43.325Z,92.38
2023-01-15T23:00:36.154Z,92.21
2023-01-15T23:05:29.930Z,92.24
2023-01-15T23:10:22.874Z,92.13
2023-01-15T23:15:18.649Z,92.19
2023-01-15T23:20:13.143Z,92.26
2023-01-15T23:25:09.243Z,92.05
2023-01-15T23:30:02.300Z,91.98
2023-01-15T23:34:55.119Z,91.97
2023-01-15T23:39:48.045Z,91.88
2023-01-15T23:44:58.705Z,92.11
2023-01-15T23:49:51.617Z,92.00
2023-01-15T23:54:44.393Z,91.94
2023-01-15T23:59:37.244Z,92.06
